createdAt,value
2018-07-05T00:00:50.802Z,3.30
2018-07-05T00:01:50.381Z,4.30
2018-07-05T00:02:50.893Z,4.20
2018-07-05T00:03:50.958Z,4.20
2018-07-05T00:04:50.798Z,3.40
2018-07-05T00:05:50.967Z,5.20
2018-07-05T00:06:50.881Z,3.10
2018-07-05T00:07:50.690Z,4.00
2018-07-05T00:08:50.694Z,4.90
2018-07-05T00:09:50.791Z,3.90
2018-07-05T00:10:50.715Z,5.90
2018-07-05T00:11:50.632Z,5.10
2018-07-05T00:12:50.759Z,4.80
2018-07-05T00:13:50.701Z,3.90
2018-07-05T00:14:50.730Z,4.50
2018-07-05T00:15:50.736Z,4.70
2018-07-05T00:16:50.744Z,4.70
2018-07-05T00:17:50.747Z,4.60
2018-07-05T00:18:50.760Z,5.50
2018-07-05T00:19:50.944Z,6.60
2018-07-05T00:20:50.870Z,6.60
2018-07-05T00:21:50.717Z,5.60
2018-07-05T00:22:51.141Z,5.10
2018-07-05T00:23:50.897Z,4.00
2018-07-05T00:24:50.868Z,5.50
2018-07-05T00:25:51.000Z,4.50
2018-07-05T00:26:50.963Z,4.50
2018-07-05T00:27:50.873Z,4.00
2018-07-05T00:28:50.945Z,4.00
2018-07-05T00:29:50.983Z,4.00
2018-07-05T00:30:50.970Z,4.80
2018-07-05T00:31:50.979Z,3.80
2018-07-05T00:32:50.665Z,4.60
2018-07-05T00:33:50.775Z,4.40
2018-07-05T00:34:50.780Z,4.50
2018-07-05T00:35:50.857Z,4.30
2018-07-05T00:36:50.775Z,5.30
2018-07-05T00:37:50.853Z,4.20
2018-07-05T00:38:50.765Z,4.10
2018-07-05T00:39:50.911Z,4.50
2018-07-05T00:40:50.820Z,4.60
2018-07-05T00:41:50.811Z,4.40
2018-07-05T00:42:50.909Z,6.00
2018-07-05T00:43:50.769Z,4.40
2018-07-05T00:44:50.893Z,5.20
2018-07-05T00:45:50.901Z,5.90
2018-07-05T00:46:50.903Z,5.10
2018-07-05T00:47:50.898Z,4.50
2018-07-05T00:48:50.873Z,6.00
2018-07-05T00:49:50.858Z,6.40
2018-07-05T00:50:50.894Z,5.10
2018-07-05T00:51:50.998Z,4.30
2018-07-05T00:52:50.973Z,4.40
2018-07-05T00:53:51.135Z,4.50
2018-07-05T00:54:50.880Z,6.00
2018-07-05T00:55:53.277Z,4.40
2018-07-05T00:56:50.892Z,5.20
2018-07-05T00:57:50.895Z,4.60
2018-07-05T00:58:50.858Z,4.70
2018-07-05T00:59:50.439Z,5.20
2018-07-05T01:00:50.810Z,5.70
2018-07-05T01:01:51.084Z,4.50
2018-07-05T01:02:51.108Z,5.20
2018-07-05T01:03:51.117Z,5.40
2018-07-05T01:04:51.092Z,5.30
2018-07-05T01:05:51.139Z,5.40
2018-07-05T01:06:51.132Z,4.70
2018-07-05T01:07:51.083Z,4.40
2018-07-05T01:08:51.102Z,4.50
2018-07-05T01:09:51.129Z,4.60
2018-07-05T01:10:52.960Z,5.30
2018-07-05T01:11:51.120Z,5.70
2018-07-05T01:12:51.141Z,5.20
2018-07-05T01:13:51.060Z,4.80
2018-07-05T01:14:51.156Z,4.70
2018-07-05T01:15:51.149Z,6.10
2018-07-05T01:16:51.224Z,6.20
2018-07-05T01:17:51.156Z,4.70
2018-07-05T01:18:51.120Z,5.10
2018-07-05T01:19:51.174Z,5.00
2018-07-05T01:20:51.118Z,6.30
2018-07-05T01:21:50.557Z,4.60
2018-07-05T01:22:51.151Z,5.00
2018-07-05T01:23:51.138Z,5.20
2018-07-05T01:24:51.092Z,4.70
2018-07-05T01:25:51.092Z,5.10
2018-07-05T01:26:51.142Z,5.20
2018-07-05T01:27:51.100Z,5.10
2018-07-05T01:28:51.120Z,4.80
2018-07-05T01:29:51.088Z,4.80
2018-07-05T01:30:51.092Z,5.90
2018-07-05T01:31:51.094Z,6.40
2018-07-05T01:32:51.093Z,5.60
2018-07-05T01:33:51.149Z,6.40
2018-07-05T01:34:51.040Z,5.60
2018-07-05T01:35:51.143Z,4.70
2018-07-05T01:36:51.067Z,6.70
2018-07-05T01:37:51.117Z,5.50
2018-07-05T01:38:51.149Z,5.80
2018-07-05T01:39:51.155Z,7.90
2018-07-05T01:40:51.128Z,5.20
2018-07-05T01:41:51.127Z,5.70
2018-07-05T01:42:51.178Z,4.90
2018-07-05T01:43:50.579Z,5.00
2018-07-05T01:44:51.128Z,5.10
2018-07-05T01:45:52.938Z,5.90
2018-07-05T01:46:51.118Z,5.10
2018-07-05T01:47:51.174Z,5.90
2018-07-05T01:48:51.149Z,5.90
2018-07-05T01:49:51.069Z,4.90
2018-07-05T01:50:51.099Z,5.60
2018-07-05T01:51:51.106Z,5.60
2018-07-05T01:52:51.041Z,5.60
2018-07-05T01:53:51.101Z,5.30
2018-07-05T01:54:51.119Z,5.40
2018-07-05T01:55:51.127Z,7.10
2018-07-05T01:56:51.060Z,5.60
2018-07-05T01:57:51.161Z,6.50
2018-07-05T01:58:51.039Z,5.10
2018-07-05T01:59:51.141Z,5.70
2018-07-05T02:00:51.152Z,6.00
2018-07-05T02:01:51.078Z,6.10
2018-07-05T02:02:51.170Z,5.90
2018-07-05T02:03:51.089Z,6.50
2018-07-05T02:04:51.076Z,5.70
2018-07-05T02:05:51.101Z,6.80
2018-07-05T02:06:51.139Z,5.70
2018-07-05T02:07:51.159Z,5.30
2018-07-05T02:08:51.105Z,5.60
2018-07-05T02:09:51.118Z,5.60
2018-07-05T02:10:51.125Z,5.40
2018-07-05T02:11:51.213Z,5.60
2018-07-05T02:12:51.118Z,5.90
2018-07-05T02:13:51.108Z,6.10
2018-07-05T02:14:51.468Z,7.20
2018-07-05T02:15:51.190Z,6.70
2018-07-05T02:16:51.123Z,5.60
2018-07-05T02:17:51.153Z,5.40
2018-07-05T02:18:51.044Z,5.10
2018-07-05T02:19:51.129Z,6.80
2018-07-05T02:20:51.087Z,5.30
2018-07-05T02:21:51.114Z,4.90
2018-07-05T02:22:51.124Z,5.80
2018-07-05T02:23:51.140Z,5.50
2018-07-05T02:24:51.111Z,5.70
2018-07-05T02:25:51.201Z,5.10
2018-07-05T02:26:51.084Z,5.90
2018-07-05T02:27:51.175Z,6.40
2018-07-05T02:28:51.132Z,5.60
2018-07-05T02:29:51.199Z,5.70
2018-07-05T02:30:50.643Z,5.60
2018-07-05T02:31:53.043Z,7.50
2018-07-05T02:32:51.166Z,5.70
2018-07-05T02:33:50.660Z,6.10
2018-07-05T02:34:51.116Z,6.00
2018-07-05T02:35:51.128Z,5.60
2018-07-05T02:36:51.185Z,5.90
2018-07-05T02:37:51.123Z,5.80
2018-07-05T02:38:51.198Z,6.30
2018-07-05T02:39:51.119Z,5.80
2018-07-05T02:40:51.109Z,5.90
2018-07-05T02:41:51.100Z,6.00
2018-07-05T02:42:51.095Z,5.40
2018-07-05T02:43:51.176Z,6.30
2018-07-05T02:44:51.109Z,5.90
2018-07-05T02:45:51.179Z,5.90
2018-07-05T02:46:51.164Z,6.40
2018-07-05T02:47:51.149Z,6.10
2018-07-05T02:48:51.128Z,6.50
2018-07-05T02:49:51.118Z,6.10
2018-07-05T02:50:51.133Z,6.40
2018-07-05T02:51:51.109Z,6.40
2018-07-05T02:52:51.104Z,6.10
2018-07-05T02:53:51.139Z,6.30
2018-07-05T02:54:51.133Z,6.40
2018-07-05T02:55:51.199Z,6.90
2018-07-05T02:56:51.196Z,6.70
2018-07-05T02:57:51.107Z,6.60
2018-07-05T02:58:51.173Z,6.90
2018-07-05T02:59:51.108Z,6.10
2018-07-05T03:00:51.116Z,5.80
2018-07-05T03:01:51.240Z,5.80
2018-07-05T03:02:51.122Z,5.80
2018-07-05T03:03:51.229Z,6.00
2018-07-05T03:04:51.203Z,6.60
2018-07-05T03:05:51.207Z,6.30
2018-07-05T03:06:51.108Z,6.30
2018-07-05T03:07:51.086Z,5.90
2018-07-05T03:08:51.156Z,6.90
2018-07-05T03:09:50.689Z,5.90
2018-07-05T03:10:51.078Z,6.10
2018-07-05T03:11:51.210Z,6.00
2018-07-05T03:12:51.210Z,5.60
2018-07-05T03:13:51.123Z,6.00
2018-07-05T03:14:51.102Z,7.80
2018-07-05T03:15:50.715Z,6.40
2018-07-05T03:16:51.184Z,6.00
2018-07-05T03:17:51.101Z,6.20
2018-07-05T03:18:51.159Z,6.20
2018-07-05T03:19:51.179Z,6.90
2018-07-05T03:20:51.174Z,5.70
2018-07-05T03:21:51.247Z,7.10
2018-07-05T03:22:51.143Z,6.80
2018-07-05T03:23:51.200Z,7.10
2018-07-05T03:24:51.192Z,7.40
2018-07-05T03:25:51.194Z,6.70
2018-07-05T03:26:51.176Z,7.00
2018-07-05T03:27:51.204Z,7.10
2018-07-05T03:28:51.213Z,6.50
2018-07-05T03:29:51.200Z,6.70
2018-07-05T03:30:51.084Z,6.40
2018-07-05T03:31:51.182Z,6.90
2018-07-05T03:32:53.349Z,5.80
2018-07-05T03:33:51.113Z,6.50
2018-07-05T03:34:51.135Z,7.30
2018-07-05T03:35:50.749Z,6.60
2018-07-05T03:36:51.185Z,6.20
2018-07-05T03:37:51.175Z,6.70
2018-07-05T03:38:51.222Z,6.80
2018-07-05T03:39:51.224Z,8.20
2018-07-05T03:40:51.185Z,6.90
2018-07-05T03:41:51.189Z,7.50
2018-07-05T03:42:51.182Z,6.20
2018-07-05T03:43:51.203Z,6.80
2018-07-05T03:44:51.198Z,7.00
2018-07-05T03:45:51.192Z,7.50
2018-07-05T03:46:51.179Z,6.70
2018-07-05T03:47:51.218Z,8.00
2018-07-05T03:48:51.196Z,6.70
2018-07-05T03:49:51.190Z,7.10
2018-07-05T03:50:51.214Z,7.20
2018-07-05T03:51:51.189Z,7.10
2018-07-05T03:52:51.239Z,6.90
2018-07-05T03:53:51.239Z,9.80
2018-07-05T03:54:51.232Z,7.10
2018-07-05T03:55:51.230Z,6.80
2018-07-05T03:56:50.709Z,7.40
2018-07-05T03:57:51.219Z,8.10
2018-07-05T03:58:51.164Z,7.40
2018-07-05T03:59:51.178Z,7.60
2018-07-05T04:00:51.180Z,6.60
2018-07-05T04:01:51.176Z,7.70
2018-07-05T04:02:51.220Z,7.10
2018-07-05T04:03:51.195Z,7.30
2018-07-05T04:04:51.164Z,7.70
2018-07-05T04:05:51.195Z,7.70
2018-07-05T04:06:51.212Z,7.80
2018-07-05T04:07:51.209Z,7.40
2018-07-05T04:08:51.210Z,7.60
2018-07-05T04:09:51.222Z,7.10
2018-07-05T04:10:50.704Z,7.60
2018-07-05T04:11:51.186Z,7.10
2018-07-05T04:12:51.196Z,7.30
2018-07-05T04:13:51.196Z,7.20
2018-07-05T04:14:51.168Z,7.90
2018-07-05T04:15:51.238Z,7.10
2018-07-05T04:16:51.230Z,8.30
2018-07-05T04:17:51.239Z,6.80
2018-07-05T04:18:51.181Z,7.30
2018-07-05T04:19:51.227Z,7.90
2018-07-05T04:20:51.241Z,7.40
2018-07-05T04:21:51.101Z,7.60
2018-07-05T04:22:51.786Z,7.20
2018-07-05T04:23:51.134Z,7.40
2018-07-05T04:24:51.172Z,7.10
2018-07-05T04:25:51.699Z,7.40
2018-07-05T04:26:50.691Z,7.90
2018-07-05T04:27:51.179Z,7.50
2018-07-05T04:28:51.690Z,7.90
2018-07-05T04:29:51.684Z,7.50
2018-07-05T04:30:50.774Z,8.80
2018-07-05T04:31:51.221Z,7.70
2018-07-05T04:32:51.213Z,9.00
2018-07-05T04:33:51.208Z,8.00
2018-07-05T04:34:51.192Z,7.20
2018-07-05T04:35:51.261Z,7.50
2018-07-05T04:36:51.215Z,7.70
2018-07-05T04:37:51.107Z,7.10
2018-07-05T04:38:51.221Z,7.30
2018-07-05T04:39:51.197Z,7.90
2018-07-05T04:40:51.200Z,8.10
2018-07-05T04:41:51.242Z,8.50
2018-07-05T04:42:51.207Z,7.70
2018-07-05T04:43:51.288Z,7.70
2018-07-05T04:44:51.202Z,7.80
2018-07-05T04:45:51.239Z,7.90
2018-07-05T04:46:51.172Z,10.00
2018-07-05T04:47:51.107Z,8.70
2018-07-05T04:48:51.186Z,8.50
2018-07-05T04:49:51.206Z,8.10
2018-07-05T04:50:51.189Z,8.20
2018-07-05T04:51:51.198Z,8.20
2018-07-05T04:52:51.132Z,8.10
2018-07-05T04:53:51.223Z,8.20
2018-07-05T04:54:51.204Z,7.90
2018-07-05T04:55:51.195Z,8.10
2018-07-05T04:56:51.262Z,9.20
2018-07-05T04:57:51.233Z,8.40
2018-07-05T04:58:51.256Z,8.20
2018-07-05T04:59:51.219Z,8.70
2018-07-05T05:00:51.708Z,9.10
2018-07-05T05:01:51.161Z,9.30
2018-07-05T05:02:51.091Z,8.80
2018-07-05T05:03:51.710Z,8.90
2018-07-05T05:04:51.206Z,8.80
2018-07-05T05:05:51.224Z,8.80
2018-07-05T05:06:51.693Z,8.40
2018-07-05T05:07:51.127Z,9.10
2018-07-05T05:09:51.896Z,8.70
2018-07-05T05:10:51.701Z,8.50
2018-07-05T05:11:51.722Z,8.40
2018-07-05T05:12:52.595Z,8.90
2018-07-05T05:13:51.229Z,8.90
2018-07-05T05:14:51.284Z,10.20
2018-07-05T05:15:51.710Z,8.50
2018-07-05T05:16:50.953Z,9.10
2018-07-05T05:17:51.709Z,9.40
2018-07-05T05:18:51.204Z,9.10
2018-07-05T05:19:51.432Z,9.40
2018-07-05T05:20:51.174Z,8.50
2018-07-05T05:21:51.684Z,8.60
2018-07-05T05:22:51.460Z,9.50
2018-07-05T05:23:51.222Z,9.40
2018-07-05T05:24:51.459Z,9.30
2018-07-05T05:25:51.466Z,8.80
2018-07-05T05:26:51.996Z,9.40
2018-07-05T05:27:51.231Z,8.90
2018-07-05T05:28:51.231Z,9.60
2018-07-05T05:29:51.154Z,8.80
2018-07-05T05:30:51.196Z,9.30
2018-07-05T05:31:51.170Z,10.80
2018-07-05T05:32:51.418Z,9.00
2018-07-05T05:33:51.813Z,9.40
2018-07-05T05:34:51.627Z,8.70
2018-07-05T05:35:51.235Z,9.00
2018-07-05T05:36:51.226Z,9.80
2018-07-05T05:37:51.229Z,9.40
2018-07-05T05:38:53.019Z,10.00
2018-07-05T05:39:51.200Z,9.70
2018-07-05T05:40:51.221Z,9.90
2018-07-05T05:41:51.228Z,10.70
2018-07-05T05:42:51.252Z,10.30
2018-07-05T05:43:51.229Z,9.90
2018-07-05T05:44:51.209Z,9.50
2018-07-05T05:45:51.233Z,9.80
2018-07-05T05:46:51.719Z,9.50
2018-07-05T05:47:51.198Z,11.90
2018-07-05T05:48:51.215Z,9.80
2018-07-05T05:49:51.217Z,10.70
2018-07-05T05:50:53.570Z,12.60
2018-07-05T05:51:51.449Z,11.00
2018-07-05T05:52:50.783Z,10.10
2018-07-05T05:53:51.288Z,11.70
2018-07-05T05:54:51.246Z,10.50
2018-07-05T05:55:51.733Z,11.10
2018-07-05T05:56:50.754Z,10.90
2018-07-05T05:57:51.862Z,10.50
2018-07-05T05:58:50.851Z,12.30
2018-07-05T05:59:51.250Z,12.00
2018-07-05T06:00:51.225Z,10.50
2018-07-05T06:01:51.170Z,13.60
2018-07-05T06:02:50.875Z,11.80
2018-07-05T06:03:51.173Z,13.60
2018-07-05T06:04:51.806Z,12.60
2018-07-05T06:05:51.226Z,12.20
2018-07-05T06:06:51.285Z,13.00
2018-07-05T06:07:51.222Z,11.40
2018-07-05T06:08:57.232Z,11.50
2018-07-05T06:09:51.142Z,11.70
2018-07-05T06:10:51.219Z,11.20
2018-07-05T06:11:51.206Z,10.80
2018-07-05T06:12:51.256Z,11.00
2018-07-05T06:13:51.200Z,11.10
2018-07-05T06:14:51.267Z,10.80
2018-07-05T06:15:51.277Z,12.80
2018-07-05T06:16:51.403Z,10.00
2018-07-05T06:17:51.731Z,10.50
2018-07-05T06:18:52.353Z,11.70
2018-07-05T06:19:51.346Z,11.40
2018-07-05T06:20:51.249Z,11.40
2018-07-05T06:21:51.732Z,10.40
2018-07-05T06:22:51.276Z,10.00
2018-07-05T06:23:51.749Z,10.40
2018-07-05T06:24:51.480Z,11.40
2018-07-05T06:25:51.223Z,10.80
2018-07-05T06:26:51.460Z,10.40
2018-07-05T06:27:51.204Z,10.90
2018-07-05T06:28:51.307Z,12.00
2018-07-05T06:29:51.251Z,11.90
2018-07-05T06:30:51.176Z,11.60
2018-07-05T06:31:51.835Z,10.40
2018-07-05T06:32:51.213Z,11.70
2018-07-05T06:33:51.235Z,11.50
2018-07-05T06:34:51.179Z,12.00
2018-07-05T06:35:51.512Z,11.50
2018-07-05T06:36:50.795Z,11.20
2018-07-05T06:37:51.204Z,13.60
2018-07-05T06:38:51.459Z,11.40
2018-07-05T06:39:51.241Z,11.60
2018-07-05T06:40:51.260Z,14.00
2018-07-05T06:41:51.480Z,12.70
2018-07-05T06:42:51.733Z,12.60
2018-07-05T06:43:51.945Z,11.80
2018-07-05T06:44:51.241Z,11.90
2018-07-05T06:45:51.753Z,11.60
2018-07-05T06:46:51.447Z,11.80
2018-07-05T06:47:51.964Z,12.20
2018-07-05T06:48:51.212Z,11.90
2018-07-05T06:49:51.211Z,11.40
2018-07-05T06:50:51.748Z,10.90
2018-07-05T06:51:51.321Z,11.20
2018-07-05T06:52:53.161Z,12.50
2018-07-05T06:53:51.272Z,11.90
2018-07-05T06:54:51.773Z,12.80
2018-07-05T06:55:51.250Z,12.00
2018-07-05T06:56:51.213Z,11.60
2018-07-05T06:57:51.231Z,11.60
2018-07-05T06:58:51.157Z,10.70
2018-07-05T06:59:51.749Z,11.30
2018-07-05T07:00:51.276Z,11.30
2018-07-05T07:01:51.498Z,12.10
2018-07-05T07:02:50.865Z,11.50
2018-07-05T07:03:51.551Z,12.50
2018-07-05T07:04:51.183Z,11.80
2018-07-05T07:05:51.879Z,12.50
2018-07-05T07:06:51.232Z,12.20
2018-07-05T07:07:51.246Z,12.70
2018-07-05T07:08:51.223Z,11.70
2018-07-05T07:09:50.899Z,12.80
2018-07-05T07:10:51.216Z,13.00
2018-07-05T07:11:51.280Z,14.80
2018-07-05T07:12:51.735Z,12.10
2018-07-05T07:13:51.306Z,11.90
2018-07-05T07:14:51.316Z,12.10
2018-07-05T07:15:51.460Z,11.90
2018-07-05T07:16:51.319Z,12.20
2018-07-05T07:17:51.752Z,12.10
2018-07-05T07:18:51.761Z,12.10
2018-07-05T07:19:51.752Z,12.00
2018-07-05T07:20:51.205Z,12.20
2018-07-05T07:21:51.234Z,11.50
2018-07-05T07:22:51.406Z,11.70
2018-07-05T07:23:51.506Z,11.40
2018-07-05T07:24:51.739Z,12.80
2018-07-05T07:25:50.951Z,14.20
2018-07-05T07:26:51.648Z,13.00
2018-07-05T07:27:51.507Z,11.90
2018-07-05T07:28:50.917Z,11.50
2018-07-05T07:29:51.235Z,11.50
2018-07-05T07:30:51.508Z,11.70
2018-07-05T07:31:51.429Z,11.80
2018-07-05T07:32:51.465Z,11.70
2018-07-05T07:33:51.226Z,11.30
2018-07-05T07:34:51.279Z,12.30
2018-07-05T07:35:50.984Z,13.60
2018-07-05T07:36:51.560Z,13.30
2018-07-05T07:37:51.148Z,12.50
2018-07-05T07:38:51.162Z,12.00
2018-07-05T07:39:51.767Z,11.40
2018-07-05T07:40:51.795Z,12.10
2018-07-05T07:41:51.274Z,11.00
2018-07-05T07:42:51.942Z,11.60
2018-07-05T07:43:50.984Z,11.20
2018-07-05T07:44:51.932Z,12.00
2018-07-05T07:45:51.008Z,12.50
2018-07-05T07:46:51.778Z,12.30
2018-07-05T07:47:51.867Z,12.00
2018-07-05T07:48:51.364Z,12.60
2018-07-05T07:49:51.373Z,11.90
2018-07-05T07:50:51.398Z,11.70
2018-07-05T07:51:51.404Z,12.00
2018-07-05T07:52:51.009Z,11.60
2018-07-05T07:53:52.278Z,11.40
2018-07-05T07:54:51.330Z,13.90
2018-07-05T07:55:51.333Z,11.70
2018-07-05T07:56:51.783Z,12.10
2018-07-05T07:57:51.403Z,12.30
2018-07-05T07:58:51.969Z,12.50
2018-07-05T07:59:51.910Z,11.20
2018-07-05T08:00:51.476Z,12.70
2018-07-05T08:01:51.077Z,10.90
2018-07-05T08:02:51.839Z,10.90
2018-07-05T08:03:51.797Z,12.00
2018-07-05T08:04:51.494Z,11.60
2018-07-05T08:05:51.181Z,12.20
2018-07-05T08:06:51.164Z,11.40
2018-07-05T08:07:51.779Z,11.70
2018-07-05T08:08:51.484Z,11.40
2018-07-05T08:09:51.477Z,10.80
2018-07-05T08:10:51.442Z,10.50
2018-07-05T08:11:53.136Z,11.70
2018-07-05T08:12:51.900Z,11.20
2018-07-05T08:13:51.351Z,11.30
2018-07-05T08:14:52.310Z,11.90
2018-07-05T08:15:51.448Z,11.80
2018-07-05T08:16:51.527Z,11.80
2018-07-05T08:17:51.381Z,10.90
2018-07-05T08:18:51.356Z,11.10
2018-07-05T08:19:51.415Z,12.00
2018-07-05T08:20:51.818Z,12.10
2018-07-05T08:21:51.393Z,11.20
2018-07-05T08:22:51.344Z,10.80
2018-07-05T08:23:51.009Z,12.10
2018-07-05T08:24:51.977Z,11.50
2018-07-05T08:25:51.074Z,11.20
2018-07-05T08:26:51.433Z,11.70
2018-07-05T08:27:51.872Z,11.50
2018-07-05T08:28:51.487Z,11.20
2018-07-05T08:29:51.563Z,10.70
2018-07-05T08:30:51.542Z,10.30
2018-07-05T08:31:53.443Z,11.50
2018-07-05T08:32:51.531Z,11.50
2018-07-05T08:33:51.128Z,14.10
2018-07-05T08:34:51.485Z,12.30
2018-07-05T08:35:52.289Z,11.20
2018-07-05T08:36:52.073Z,10.80
2018-07-05T08:37:51.500Z,10.80
2018-07-05T08:38:51.365Z,12.00
2018-07-05T08:39:51.357Z,10.60
2018-07-05T08:40:51.943Z,10.80
2018-07-05T08:41:52.073Z,11.10
2018-07-05T08:42:51.902Z,9.70
2018-07-05T08:43:52.148Z,9.80
2018-07-05T08:44:52.046Z,9.80
2018-07-05T08:45:56.044Z,9.90
2018-07-05T08:46:51.494Z,10.30
2018-07-05T08:48:52.851Z,11.60
2018-07-05T08:49:51.947Z,11.20
2018-07-05T08:50:51.609Z,10.00
2018-07-05T08:51:51.503Z,11.20
2018-07-05T08:52:51.564Z,10.80
2018-07-05T08:53:52.020Z,10.80
2018-07-05T08:54:54.724Z,11.40
2018-07-05T08:55:53.081Z,11.00
2018-07-05T08:56:51.820Z,10.40
2018-07-05T08:57:51.810Z,9.80
2018-07-05T08:58:54.685Z,9.90
2018-07-05T08:59:51.647Z,9.70
2018-07-05T09:00:51.749Z,10.10
2018-07-05T09:01:52.307Z,9.20
2018-07-05T09:02:51.791Z,11.80
2018-07-05T09:03:51.716Z,10.10
2018-07-05T09:04:51.783Z,10.50
2018-07-05T09:05:52.438Z,10.10
2018-07-05T09:06:52.041Z,10.60
2018-07-05T09:07:52.308Z,9.80
2018-07-05T09:08:52.760Z,9.10
2018-07-05T09:09:51.788Z,10.20
2018-07-05T09:10:51.746Z,9.40
2018-07-05T09:11:53.618Z,8.90
2018-07-05T09:12:51.814Z,9.70
2018-07-05T09:13:51.807Z,9.10
2018-07-05T09:14:51.807Z,9.40
2018-07-05T09:15:52.513Z,11.20
2018-07-05T09:16:51.799Z,10.70
2018-07-05T09:17:52.098Z,12.70
2018-07-05T09:18:51.805Z,10.30
2018-07-05T09:19:51.785Z,11.00
2018-07-05T09:20:52.010Z,10.50
2018-07-05T09:21:52.012Z,9.50
2018-07-05T09:22:51.819Z,10.50
2018-07-05T09:23:52.018Z,9.60
2018-07-05T09:24:52.300Z,10.60
2018-07-05T09:25:51.967Z,11.00
2018-07-05T09:26:51.721Z,10.10
2018-07-05T09:27:52.032Z,9.30
2018-07-05T09:28:51.757Z,8.30
2018-07-05T09:29:52.075Z,8.50
2018-07-05T09:30:52.006Z,9.30
2018-07-05T09:31:52.310Z,9.70
2018-07-05T09:32:51.787Z,9.60
2018-07-05T09:33:51.198Z,8.90
2018-07-05T09:34:52.417Z,9.10
2018-07-05T09:35:52.017Z,9.50
2018-07-05T09:36:51.797Z,8.90
2018-07-05T09:37:52.334Z,7.80
2018-07-05T09:38:51.751Z,7.90
2018-07-05T09:39:52.071Z,8.70
2018-07-05T09:40:51.794Z,8.90
2018-07-05T09:41:51.754Z,9.20
2018-07-05T09:42:51.961Z,8.50
2018-07-05T09:43:51.770Z,9.30
2018-07-05T09:44:51.794Z,8.90
2018-07-05T09:45:51.864Z,10.50
2018-07-05T09:46:52.358Z,9.40
2018-07-05T09:47:51.997Z,9.70
2018-07-05T09:48:51.316Z,9.90
2018-07-05T09:49:51.780Z,9.30
2018-07-05T09:50:51.811Z,9.80
2018-07-05T09:51:52.648Z,9.10
2018-07-05T09:52:52.390Z,9.40
2018-07-05T09:53:51.551Z,7.10
2018-07-05T09:54:52.063Z,8.20
2018-07-05T09:55:51.824Z,7.60
2018-07-05T09:56:51.792Z,7.90
2018-07-05T09:57:51.805Z,8.60
2018-07-05T09:58:52.079Z,9.50
2018-07-05T09:59:51.860Z,9.80
2018-07-05T10:00:52.050Z,10.00
2018-07-05T10:01:52.070Z,8.40
2018-07-05T10:02:51.874Z,9.40
2018-07-05T10:03:51.928Z,9.00
2018-07-05T10:04:52.314Z,8.20
2018-07-05T10:05:51.445Z,9.20
2018-07-05T10:06:53.042Z,11.90
2018-07-05T10:07:53.528Z,8.40
2018-07-05T10:08:51.812Z,10.40
2018-07-05T10:09:51.854Z,10.40
2018-07-05T10:10:54.052Z,9.10
2018-07-05T10:11:51.363Z,9.60
2018-07-05T10:12:52.327Z,8.20
2018-07-05T10:13:53.854Z,8.10
2018-07-05T10:15:51.479Z,9.30
2018-07-05T10:16:52.066Z,8.30
2018-07-05T10:17:57.834Z,7.60
2018-07-05T10:18:52.699Z,7.70
2018-07-05T10:19:51.595Z,9.70
2018-07-05T10:20:52.264Z,8.30
2018-07-05T10:21:51.845Z,8.20
2018-07-05T10:22:51.852Z,9.40
2018-07-05T10:23:52.532Z,9.30
2018-07-05T10:24:51.493Z,7.40
2018-07-05T10:25:51.855Z,6.90
2018-07-05T10:26:51.856Z,6.60
2018-07-05T10:27:51.837Z,7.30
2018-07-05T10:28:52.321Z,7.00
2018-07-05T10:29:51.830Z,6.80
2018-07-05T10:30:52.343Z,7.50
2018-07-05T10:31:51.865Z,7.00
2018-07-05T10:32:51.887Z,7.10
2018-07-05T10:33:52.335Z,6.30
2018-07-05T10:34:51.814Z,7.60
2018-07-05T10:35:52.467Z,7.60
2018-07-05T10:36:51.961Z,8.10
2018-07-05T10:37:53.053Z,8.10
2018-07-05T10:38:52.337Z,7.90
2018-07-05T10:39:51.872Z,8.10
2018-07-05T10:40:53.997Z,9.50
2018-07-05T10:41:51.931Z,7.80
2018-07-05T10:42:51.820Z,7.80
2018-07-05T10:43:51.828Z,7.60
2018-07-05T10:44:52.059Z,11.60
2018-07-05T10:45:51.826Z,7.70
2018-07-05T10:46:51.772Z,8.40
2018-07-05T10:47:52.331Z,7.10
2018-07-05T10:48:51.905Z,7.60
2018-07-05T10:49:51.897Z,6.20
2018-07-05T10:50:51.877Z,6.30
2018-07-05T10:51:51.861Z,6.30
2018-07-05T10:52:52.019Z,5.50
2018-07-05T10:53:51.877Z,7.50
2018-07-05T10:54:52.549Z,6.80
2018-07-05T10:55:52.057Z,7.50
2018-07-05T10:56:51.935Z,6.40
2018-07-05T10:57:51.952Z,6.60
2018-07-05T10:58:51.969Z,6.20
2018-07-05T10:59:52.420Z,6.20
2018-07-05T11:00:52.264Z,5.70
2018-07-05T11:01:53.790Z,6.20
2018-07-05T11:02:52.058Z,5.50
2018-07-05T11:03:51.631Z,5.80
2018-07-05T11:04:52.093Z,5.50
2018-07-05T11:05:51.705Z,8.00
2018-07-05T11:06:53.054Z,5.90
2018-07-05T11:07:52.151Z,5.80
2018-07-05T11:08:52.548Z,6.30
2018-07-05T11:09:52.068Z,5.20
2018-07-05T11:10:52.140Z,6.00
2018-07-05T11:11:52.501Z,5.50
2018-07-05T11:12:52.535Z,6.60
2018-07-05T11:13:52.552Z,5.90
2018-07-05T11:14:53.419Z,5.30
2018-07-05T11:15:52.161Z,7.60
2018-07-05T11:16:52.036Z,5.00
2018-07-05T11:17:52.005Z,5.70
2018-07-05T11:18:52.012Z,4.80
2018-07-05T11:19:53.433Z,4.90
2018-07-05T11:20:52.627Z,4.50
2018-07-05T11:21:52.453Z,4.20
2018-07-05T11:22:52.125Z,5.30
2018-07-05T11:23:52.131Z,5.10
2018-07-05T11:24:52.123Z,5.70
2018-07-05T11:25:52.129Z,6.10
2018-07-05T11:26:52.092Z,5.50
2018-07-05T11:27:52.075Z,5.10
2018-07-05T11:28:52.570Z,5.50
2018-07-05T11:29:52.542Z,5.50
2018-07-05T11:30:52.204Z,5.10
2018-07-05T11:31:53.606Z,4.80
2018-07-05T11:32:52.705Z,6.30
2018-07-05T11:33:53.135Z,5.20
2018-07-05T11:34:52.354Z,5.10
2018-07-05T11:35:52.325Z,6.30
2018-07-05T11:36:52.441Z,4.40
2018-07-05T11:37:52.553Z,5.00
2018-07-05T11:38:52.653Z,4.20
2018-07-05T11:39:52.418Z,4.20
2018-07-05T11:40:51.870Z,4.60
2018-07-05T11:41:52.363Z,5.50
2018-07-05T11:42:52.890Z,4.20
2018-07-05T11:43:52.078Z,6.60
2018-07-05T11:44:52.870Z,4.50
2018-07-05T11:45:51.814Z,4.80
2018-07-05T11:46:52.722Z,4.30
2018-07-05T11:47:52.149Z,4.70
2018-07-05T11:48:52.586Z,6.50
2018-07-05T11:49:53.078Z,6.60
2018-07-05T11:50:51.865Z,4.70
2018-07-05T11:51:54.413Z,5.10
2018-07-05T11:52:52.908Z,4.90
2018-07-05T11:53:52.533Z,4.90
2018-07-05T11:54:53.063Z,5.20
2018-07-05T11:55:52.596Z,4.70
2018-07-05T11:56:52.104Z,4.10
2018-07-05T11:57:52.331Z,4.40
2018-07-05T11:58:53.004Z,4.60
2018-07-05T11:59:52.898Z,4.80
2018-07-05T12:00:52.617Z,4.50
2018-07-05T12:01:52.401Z,4.70
2018-07-05T12:02:51.802Z,6.10
2018-07-05T12:03:52.617Z,4.40
2018-07-05T12:04:52.643Z,4.20
2018-07-05T12:05:52.598Z,4.30
2018-07-05T12:06:51.894Z,4.20
2018-07-05T12:07:52.636Z,5.80
2018-07-05T12:08:52.321Z,4.80
2018-07-05T12:09:52.396Z,4.80
2018-07-05T12:10:52.409Z,4.00
2018-07-05T12:11:51.900Z,5.10
2018-07-05T12:12:52.889Z,4.30
2018-07-05T12:13:52.498Z,4.70
2018-07-05T12:14:52.560Z,4.10
2018-07-05T12:15:52.337Z,5.30
2018-07-05T12:16:52.137Z,5.20
2018-07-05T12:17:54.521Z,6.20
2018-07-05T12:18:52.605Z,3.60
2018-07-05T12:19:52.348Z,5.10
2018-07-05T12:20:52.568Z,6.50
2018-07-05T12:21:53.040Z,4.20
2018-07-05T12:22:54.109Z,4.30
2018-07-05T12:23:52.556Z,4.40
2018-07-05T12:24:52.461Z,4.00
2018-07-05T12:25:52.595Z,4.90
2018-07-05T12:26:52.472Z,3.90
2018-07-05T12:27:52.642Z,3.70
2018-07-05T12:28:52.451Z,3.60
2018-07-05T12:29:54.473Z,4.60
2018-07-05T12:30:52.418Z,3.50
2018-07-05T12:31:52.644Z,3.90
2018-07-05T12:32:52.610Z,3.60
2018-07-05T12:33:54.269Z,3.30
2018-07-05T12:34:52.484Z,4.50
2018-07-05T12:35:54.186Z,3.20
2018-07-05T12:36:52.901Z,4.50
2018-07-05T12:37:52.602Z,3.30
2018-07-05T12:38:52.611Z,3.10
2018-07-05T12:39:53.099Z,4.90
2018-07-05T12:40:52.475Z,3.40
2018-07-05T12:41:52.461Z,3.80
2018-07-05T12:42:52.474Z,4.90
2018-07-05T12:43:52.473Z,4.30
2018-07-05T12:44:53.342Z,3.70
2018-07-05T12:45:52.558Z,3.60
2018-07-05T12:46:52.682Z,3.30
2018-07-05T12:47:52.812Z,3.20
2018-07-05T12:48:52.664Z,3.40
2018-07-05T12:49:52.688Z,3.80
2018-07-05T12:50:52.966Z,2.80
2018-07-05T12:51:53.576Z,3.60
2018-07-05T12:52:52.871Z,4.80
2018-07-05T12:53:52.666Z,3.70
2018-07-05T12:54:52.872Z,3.80
2018-07-05T12:55:52.975Z,3.90
2018-07-05T12:56:52.627Z,3.60
2018-07-05T12:57:53.122Z,4.40
2018-07-05T12:58:53.119Z,3.20
2018-07-05T12:59:53.124Z,4.00
2018-07-05T13:00:52.922Z,3.70
2018-07-05T13:01:53.415Z,4.90
2018-07-05T13:02:52.657Z,3.50
2018-07-05T13:03:53.482Z,3.70
2018-07-05T13:04:53.437Z,3.20
2018-07-05T13:05:52.937Z,3.10
2018-07-05T13:06:53.417Z,3.00
2018-07-05T13:07:52.921Z,3.50
2018-07-05T13:08:53.128Z,3.40
2018-07-05T13:09:53.427Z,3.50
2018-07-05T13:10:53.468Z,3.10
2018-07-05T13:11:53.424Z,3.20
2018-07-05T13:12:53.250Z,3.90
2018-07-05T13:13:53.424Z,4.20
2018-07-05T13:14:53.571Z,2.90